Tuesday, January 17, 2017, 3:47 AM EST

KOFP, Hanover County Municipal

Location: Ashland, VA, United States Lat: 37.7
Local Time: 3:47 AM EST ( 8:47 GMT) Lon: -77.433
Time Zone: US/Eastern Elev: 203 ft

Show me the last for .
Show Decoded

2017-01-17 02:54 METAR KOFP 170754Z AUTO 19003KT 6SM BR OVC095 06/04 A3028 RMK AO2 SLP252
                 T00610044 =
2017-01-17 01:54 METAR KOFP 170654Z AUTO 00000KT 6SM BR FEW100 06/04 A3028 RMK AO2 SLP253
                 T00560039 =
2017-01-17 00:54 METAR KOFP 170554Z AUTO VRB04KT 7SM CLR 05/03 A3029 RMK AO2 SLP257 T00500033
                 10061 20039 58023 =
2017-01-16 23:54 METAR KOFP 170454Z AUTO 00000KT 8SM CLR 05/03 A3031 RMK AO2 SLP265 T00500028
                 400720028 =
2017-01-16 23:18 METAR KOFP 170418Z AUTO 14003KT 9SM SCT015 BKN085 06/03 A3032 RMK AO2 T00560028
                 =
2017-01-16 22:54 METAR KOFP 170354Z AUTO 16003KT 10SM OVC015 06/03 A3034 RMK AO2 SLP273 T00610033
                 =
2017-01-16 22:02 METAR KOFP 170302Z AUTO 18006KT 9SM SCT014 OVC020 06/03 A3035 RMK AO2 T00610028
                 =
2017-01-16 21:54 METAR KOFP 170254Z AUTO 18006KT 9SM BKN013 OVC020 06/03 A3036 RMK AO2 SLP280
                 T00610028 58007 =
2017-01-16 21:24 METAR KOFP 170224Z AUTO 18004KT 8SM OVC013 06/03 A3037 RMK AO2 T00610028 =
2017-01-16 20:54 METAR KOFP 170154Z AUTO 17004KT 8SM OVC017 06/03 A3038 RMK AO2 SLP286 T00610028
                 =
2017-01-16 19:54 METAR KOFP 170054Z AUTO 17004KT 8SM BKN025 BKN070 OVC110 06/02 A3038 RMK AO2
                 SLP286 T00610022 =
2017-01-16 19:01 METAR KOFP 170001Z AUTO 00000KT 7SM SCT025 BKN070 OVC110 06/02 A3038 RMK AO2
                 T00610022 =
2017-01-16 18:54 METAR KOFP 162354Z AUTO 16003KT 8SM BKN025 BKN070 OVC110 06/02 A3038 RMK AO2
                 SLP288 T00610022 10072 20056 56006 =
2017-01-16 18:52 METAR KOFP 162352Z AUTO 00000KT 8SM BKN025 BKN070 OVC110 06/02 A3038 RMK AO2 =
2017-01-16 18:28 METAR KOFP 162328Z AUTO 00000KT 8SM SCT023 SCT070 OVC110 06/02 A3038 RMK AO2
                 T00610022 =
2017-01-16 17:54 METAR KOFP 162254Z AUTO 15003KT 8SM BKN023 OVC031 06/02 A3038 RMK AO2 SLP288
                 T00610022 =
2017-01-16 17:32 METAR KOFP 162232Z AUTO 16004KT 8SM BKN024 OVC032 07/02 A3039 RMK AO2 T00670022
                 =
2017-01-16 16:54 METAR KOFP 162154Z AUTO 18005KT 7SM BKN032 OVC075 07/02 A3040 RMK AO2 SLP293
                 T00670022 =
2017-01-16 16:42 METAR KOFP 162142Z AUTO 17004KT 7SM OVC030 07/02 A3039 RMK AO2 T00670022 =
2017-01-16 15:54 METAR KOFP 162054Z AUTO 17004KT 9SM BKN027 OVC031 07/02 A3039 RMK AO2 SLP292
                 T00670022 55011 =
2017-01-16 15:33 METAR KOFP 162033Z AUTO 19004KT 10SM FEW022 OVC032 07/02 A3039 RMK AO2 T00670022
                 =
2017-01-16 14:54 METAR KOFP 161954Z AUTO 17004KT 9SM BKN027 OVC031 07/02 A3039 RMK AO2 SLP292
                 T00670017 =
2017-01-16 14:11 METAR KOFP 161911Z AUTO VRB03KT 9SM FEW017 BKN029 OVC035 06/01 A3040 RMK AO2
                 T00610011 =
2017-01-16 13:54 METAR KOFP 161854Z AUTO VRB03KT 9SM SCT017 OVC037 06/01 A3040 RMK AO2 SLP296
                 T00610011 =
2017-01-16 12:54 METAR KOFP 161754Z AUTO 17005KT 10SM OVC041 06/00 A3043 RMK AO2 SLP303 T00610000
                 10061 20028 58025 =
2017-01-16 11:54 METAR KOFP 161654Z AUTO 00000KT 8SM OVC038 06/02 A3046 RMK AO2 SLP316 T00560017
                 =
2017-01-16 11:19 METAR KOFP 161619Z AUTO 15003KT 8SM SCT025 OVC037 05/02 A3049 RMK AO2 T00500017
                 =
2017-01-16 10:54 METAR KOFP 161554Z AUTO 20003KT 7SM OVC026 04/02 A3050 RMK AO2 SLP330 T00440017
                 =
2017-01-16 10:10 METAR KOFP 161510Z AUTO 00000KT 7SM BKN026 BKN031 OVC044 04/02 A3051 RMK AO2
                 T00440017 =
2017-01-16 09:54 METAR KOFP 161454Z AUTO 00000KT 7SM FEW026 SCT033 OVC042 04/02 A3050 RMK AO2
                 SLP329 T00440017 53015 =
2017-01-16 08:54 METAR KOFP 161354Z AUTO 00000KT 5SM BR OVC039 04/02 A3048 RMK AO2 SLP322
                 T00390022 =
2017-01-16 07:54 METAR KOFP 161254Z AUTO 00000KT 4SM BR SCT025 OVC043 03/02 A3047 RMK AO2 SLP318
                 T00330017 =
2017-01-16 07:17 METAR KOFP 161217Z AUTO 00000KT 6SM BR BKN025 BKN036 OVC055 03/02 A3047 RMK AO2
                 T00330017 =
2017-01-16 07:09 METAR KOFP 161209Z AUTO 00000KT 7SM FEW008 BKN037 OVC055 03/02 A3046 RMK AO2
                 T00330017 =
2017-01-16 07:02 METAR KOFP 161202Z AUTO 00000KT 7SM SCT008 BKN025 OVC055 03/02 A3046 RMK AO2
                 T00330017 =
2017-01-16 06:54 METAR KOFP 161154Z AUTO 00000KT 7SM BKN008 BKN025 OVC055 03/02 A3046 RMK AO2
                 RAB05E21 CIG 006V010 SLP314 P0000 60006 70009 T00280017 10044 20028 53004 =
2017-01-16 06:03 METAR KOFP 161103Z AUTO 00000KT 6SM BR BKN008 OVC060 04/02 A3045 RMK AO2
                 T00390022 =
2017-01-16 05:54 METAR KOFP 161054Z AUTO 00000KT 6SM BR FEW012 OVC055 04/02 A3045 RMK AO2 SLP313
                 T00390022 =
2017-01-16 04:54 METAR KOFP 160954Z AUTO 00000KT 6SM BR OVC060 04/02 A3044 RMK AO2 RAE43 SLP309
                 P0001 T00390022 =
2017-01-16 03:54 METAR KOFP 160854Z AUTO 00000KT 7SM -RA OVC049 04/02 A3044 RMK AO2 SLP309 P0002
                 60005 T00390022 51003 =

Support USWX by starting your Amazon purchase here.